Walker Landing, California
Current Conditions -  °F | °C
As of 4:58 AM on Thursday 18 Dec 2014 (Local Time) from KSUU Reporting Station
Overcast Overcast  
Wind Chill: 52°   Ceiling: 2900
Heat Index: 52°   Visibility: 10mi
Dew Point: 48°   Wind: 1mph
Humidity: 88%   Direction: 300°WNW
Pressure: 30.09"   Gusts: NA
Location:  38.2298°N, 121.579°W
Report Text: KSUU 181258Z 30001KT 10SM OVC029 11/09 A3009 RMK AO2A SLP196 $
Loading
Personal Weather Stations






























Interactive Weather Map New forecast layout! Learn more

10-Day Weather Forecast

Advertisements
Track Severe Weather on mobile